Terminal Aerodrome Forecast
Issued by NWS Melbourne, FL

Home | Current Version | Previous Version | Text Only | Print | Product List | Glossary On
Versions: 1 2 3 4 5 6 7 8 9 10 11 12 13 14
000
FTUS42 KMLB 201700 RRA
TAFVRB
TAF
KVRB 201743Z 2018/2118 12008KT P6SM FEW040 SCT250
     FM210000 18003KT P6SM BKN250
     FM211400 22004KT P6SM SCT030 BKN150 OVC220=

USA.gov is the U.S. government's official web portal to all federal, state and local government web resources and services.